sensor_id;sensor_type;location;lat;lon;timestamp;pressure;altitude;pressure_sealevel;temperature;humidity
4167;BME280;2097;51.104;7.150;2023-03-03T00:01:30;99338.66;;;-0.66;84.54
4167;BME280;2097;51.104;7.150;2023-03-03T00:03:58;99221.06;;;-1.50;83.90
4167;BME280;2097;51.104;7.150;2023-03-03T00:06:25;99130.53;;;-2.08;84.49
4167;BME280;2097;51.104;7.150;2023-03-03T00:08:54;99342.13;;;-0.85;84.30
4167;BME280;2097;51.104;7.150;2023-03-03T00:11:21;99347.25;;;-0.90;84.69
4167;BME280;2097;51.104;7.150;2023-03-03T00:13:49;99351.50;;;-0.93;85.45
4167;BME280;2097;51.104;7.150;2023-03-03T00:16:23;99338.78;;;-0.98;85.49
4167;BME280;2097;51.104;7.150;2023-03-03T00:18:52;99269.34;;;-1.41;85.05
4167;BME280;2097;51.104;7.150;2023-03-03T00:21:25;99261.75;;;-1.47;85.17
4167;BME280;2097;51.104;7.150;2023-03-03T00:23:54;99282.09;;;-1.49;84.99
4167;BME280;2097;51.104;7.150;2023-03-03T00:26:28;99277.03;;;-1.47;84.99
4167;BME280;2097;51.104;7.150;2023-03-03T00:28:58;99343.06;;;-1.13;85.67
4167;BME280;2097;51.104;7.150;2023-03-03T00:31:29;99351.56;;;-1.17;85.08
4167;BME280;2097;51.104;7.150;2023-03-03T00:34:09;99346.47;;;-1.23;86.04
4167;BME280;2097;51.104;7.150;2023-03-03T00:36:41;99302.44;;;-1.55;85.59
4167;BME280;2097;51.104;7.150;2023-03-03T00:39:18;99344.84;;;-1.33;86.07
4167;BME280;2097;51.104;7.150;2023-03-03T00:41:47;99346.50;;;-1.36;86.25
4167;BME280;2097;51.104;7.150;2023-03-03T00:44:37;99343.13;;;-1.41;86.45
4167;BME280;2097;51.104;7.150;2023-03-03T00:47:22;99353.31;;;-1.46;86.38
4167;BME280;2097;51.104;7.150;2023-03-03T00:49:52;99364.38;;;-1.48;86.79
4167;BME280;2097;51.104;7.150;2023-03-03T00:52:19;99360.97;;;-1.53;86.13
4167;BME280;2097;51.104;7.150;2023-03-03T00:54:46;99239.81;;;-2.33;86.99
4167;BME280;2097;51.104;7.150;2023-03-03T00:57:13;99369.47;;;-1.65;86.12
4167;BME280;2097;51.104;7.150;2023-03-03T00:59:40;99367.78;;;-1.69;86.63
4167;BME280;2097;51.104;7.150;2023-03-03T01:02:08;99369.44;;;-1.72;86.21
4167;BME280;2097;51.104;7.150;2023-03-03T01:04:35;99366.94;;;-1.77;86.49
4167;BME280;2097;51.104;7.150;2023-03-03T01:07:03;99372.88;;;-1.82;87.16
4167;BME280;2097;51.104;7.150;2023-03-03T01:09:30;99376.25;;;-1.86;87.08
4167;BME280;2097;51.104;7.150;2023-03-03T01:11:57;99375.38;;;-1.87;86.65
4167;BME280;2097;51.104;7.150;2023-03-03T01:14:24;99312.66;;;-2.28;87.28
4167;BME280;2097;51.104;7.150;2023-03-03T01:16:51;99377.09;;;-1.90;87.25
4167;BME280;2097;51.104;7.150;2023-03-03T01:19:17;99381.34;;;-1.86;87.46
4167;BME280;2097;51.104;7.150;2023-03-03T01:21:44;99388.09;;;-1.84;86.89
4167;BME280;2097;51.104;7.150;2023-03-03T01:24:12;99321.16;;;-2.19;86.86
4167;BME280;2097;51.104;7.150;2023-03-03T01:26:39;99217.81;;;-2.66;87.03
4167;BME280;2097;51.104;7.150;2023-03-03T01:29:07;99383.00;;;-1.76;86.88
4167;BME280;2097;51.104;7.150;2023-03-03T01:31:34;99381.31;;;-1.74;86.72
4167;BME280;2097;51.104;7.150;2023-03-03T01:34:01;99372.88;;;-1.69;86.69
4167;BME280;2097;51.104;7.150;2023-03-03T01:36:28;99370.31;;;-1.64;86.77
4167;BME280;2097;51.104;7.150;2023-03-03T01:38:55;99372.00;;;-1.60;87.03
4167;BME280;2097;51.104;7.150;2023-03-03T01:41:26;99285.56;;;-2.08;86.54
4167;BME280;2097;51.104;7.150;2023-03-03T01:43:53;99293.19;;;-2.07;86.87
4167;BME280;2097;51.104;7.150;2023-03-03T01:46:53;99382.16;;;-1.35;86.95
4167;BME280;2097;51.104;7.150;2023-03-03T01:49:22;99295.69;;;-1.81;86.91
4167;BME280;2097;51.104;7.150;2023-03-03T01:51:53;99321.97;;;-1.52;86.41
4167;BME280;2097;51.104;7.150;2023-03-03T01:54:24;99382.94;;;-1.05;86.69
4167;BME280;2097;51.104;7.150;2023-03-03T01:56:57;99380.38;;;-0.97;87.03
4167;BME280;2097;51.104;7.150;2023-03-03T01:59:27;99395.63;;;-0.87;86.94
4167;BME280;2097;51.104;7.150;2023-03-03T02:01:55;99404.09;;;-0.76;87.26
4167;BME280;2097;51.104;7.150;2023-03-03T02:04:22;99394.69;;;-0.68;86.65
4167;BME280;2097;51.104;7.150;2023-03-03T02:06:53;99288.84;;;-1.30;86.96
4167;BME280;2097;51.104;7.150;2023-03-03T02:09:26;99400.56;;;-0.52;86.66
4167;BME280;2097;51.104;7.150;2023-03-03T02:11:59;99388.66;;;-0.46;87.02
4167;BME280;2097;51.104;7.150;2023-03-03T02:14:27;99317.50;;;-0.82;87.40
4167;BME280;2097;51.104;7.150;2023-03-03T02:16:54;99385.19;;;-0.33;86.70
4167;BME280;2097;51.104;7.150;2023-03-03T02:19:24;99347.88;;;-0.47;87.25
4167;BME280;2097;51.104;7.150;2023-03-03T02:21:54;99391.06;;;-0.22;86.91
4167;BME280;2097;51.104;7.150;2023-03-03T02:24:25;99386.81;;;-0.18;87.73
4167;BME280;2097;51.104;7.150;2023-03-03T02:26:54;99353.78;;;-0.36;87.90
4167;BME280;2097;51.104;7.150;2023-03-03T02:29:21;99345.31;;;-0.40;87.29
4167;BME280;2097;51.104;7.150;2023-03-03T02:31:48;99395.25;;;-0.09;87.46
4167;BME280;2097;51.104;7.150;2023-03-03T02:34:15;99407.16;;;-0.08;88.25
4167;BME280;2097;51.104;7.150;2023-03-03T02:36:42;99406.28;;;-0.08;88.05
4167;BME280;2097;51.104;7.150;2023-03-03T02:39:12;99414.78;;;-0.05;87.91
4167;BME280;2097;51.104;7.150;2023-03-03T02:41:42;99419.03;;;-0.04;88.18
4167;BME280;2097;51.104;7.150;2023-03-03T02:44:13;99418.16;;;-0.04;87.94
4167;BME280;2097;51.104;7.150;2023-03-03T02:46:42;99392.78;;;-0.22;89.02
4167;BME280;2097;51.104;7.150;2023-03-03T02:49:11;99416.50;;;-0.08;88.90
4167;BME280;2097;51.104;7.150;2023-03-03T02:51:39;99412.28;;;-0.11;88.73
4167;BME280;2097;51.104;7.150;2023-03-03T02:54:07;99402.94;;;-0.16;89.50
4167;BME280;2097;51.104;7.150;2023-03-03T02:56:34;99198.97;;;-1.41;89.66
4167;BME280;2097;51.104;7.150;2023-03-03T02:59:02;99412.28;;;-0.14;88.88
4167;BME280;2097;51.104;7.150;2023-03-03T03:01:30;99413.13;;;-0.15;89.76
4167;BME280;2097;51.104;7.150;2023-03-03T03:04:02;99307.25;;;-0.74;89.82
4167;BME280;2097;51.104;7.150;2023-03-03T03:06:31;99405.47;;;-0.13;89.27
4167;BME280;2097;51.104;7.150;2023-03-03T03:08:58;99407.19;;;-0.15;90.34
4167;BME280;2097;51.104;7.150;2023-03-03T03:11:25;99179.50;;;-1.49;89.95
4167;BME280;2097;51.104;7.150;2023-03-03T03:13:51;99402.94;;;-0.15;90.17
4167;BME280;2097;51.104;7.150;2023-03-03T03:16:18;99391.94;;;-0.18;89.88
4167;BME280;2097;51.104;7.150;2023-03-03T03:18:47;99297.13;;;-0.83;90.13
4167;BME280;2097;51.104;7.150;2023-03-03T03:21:15;99265.00;;;-1.14;90.03
4167;BME280;2097;51.104;7.150;2023-03-03T03:23:41;99415.00;;;-0.47;91.24
4167;BME280;2097;51.104;7.150;2023-03-03T03:26:08;99389.59;;;-0.71;90.71
4167;BME280;2097;51.104;7.150;2023-03-03T03:28:36;99434.53;;;-0.47;91.46
4167;BME280;2097;51.104;7.150;2023-03-03T03:31:04;99365.03;;;-0.82;91.08
4167;BME280;2097;51.104;7.150;2023-03-03T03:33:31;98901.47;;;-3.50;90.65
4167;BME280;2097;51.104;7.150;2023-03-03T03:35:59;99426.03;;;-0.45;91.67
4167;BME280;2097;51.104;7.150;2023-03-03T03:38:27;99431.13;;;-0.46;90.77
4167;BME280;2097;51.104;7.150;2023-03-03T03:40:56;99429.41;;;-0.41;91.52
4167;BME280;2097;51.104;7.150;2023-03-03T03:43:23;99388.75;;;-0.62;91.27
4167;BME280;2097;51.104;7.150;2023-03-03T03:45:51;99424.28;;;-0.34;91.29
4167;BME280;2097;51.104;7.150;2023-03-03T03:48:18;99410.69;;;-0.36;90.91
4167;BME280;2097;51.104;7.150;2023-03-03T03:50:46;99206.66;;;-1.57;90.80
4167;BME280;2097;51.104;7.150;2023-03-03T03:53:14;99420.06;;;-0.39;91.39
4167;BME280;2097;51.104;7.150;2023-03-03T03:55:41;99426.00;;;-0.37;91.07
4167;BME280;2097;51.104;7.150;2023-03-03T03:58:07;99413.22;;;-0.33;91.92
4167;BME280;2097;51.104;7.150;2023-03-03T04:00:34;99276.06;;;-1.13;91.05
4167;BME280;2097;51.104;7.150;2023-03-03T04:03:01;99365.78;;;-0.55;90.92
4167;BME280;2097;51.104;7.150;2023-03-03T04:05:28;99407.31;;;-0.38;92.04
4167;BME280;2097;51.104;7.150;2023-03-03T04:07:55;99410.72;;;-0.40;91.30
4167;BME280;2097;51.104;7.150;2023-03-03T04:10:23;99413.28;;;-0.42;92.36
4167;BME280;2097;51.104;7.150;2023-03-03T04:12:50;99365.03;;;-0.81;91.70
4167;BME280;2097;51.104;7.150;2023-03-03T04:15:17;99423.44;;;-0.37;92.51
4167;BME280;2097;51.104;7.150;2023-03-03T04:17:44;99423.44;;;-0.36;92.17
4167;BME280;2097;51.104;7.150;2023-03-03T04:20:12;99401.38;;;-0.37;91.72
4167;BME280;2097;51.104;7.150;2023-03-03T04:22:39;99351.44;;;-0.74;91.67
4167;BME280;2097;51.104;7.150;2023-03-03T04:25:08;99415.81;;;-0.37;91.98
4167;BME280;2097;51.104;7.150;2023-03-03T04:27:36;99417.50;;;-0.39;92.03
4167;BME280;2097;51.104;7.150;2023-03-03T04:30:05;99374.34;;;-0.74;92.46
4167;BME280;2097;51.104;7.150;2023-03-03T04:32:32;99444.72;;;-0.37;92.65
4167;BME280;2097;51.104;7.150;2023-03-03T04:34:59;99426.00;;;-0.37;92.25
4167;BME280;2097;51.104;7.150;2023-03-03T04:37:26;99426.00;;;-0.37;92.53
4167;BME280;2097;51.104;7.150;2023-03-03T04:39:53;99436.16;;;-0.36;93.03
4167;BME280;2097;51.104;7.150;2023-03-03T04:42:20;99303.19;;;-1.14;93.06
4167;BME280;2097;51.104;7.150;2023-03-03T04:44:48;99296.38;;;-1.09;92.24
4167;BME280;2097;51.104;7.150;2023-03-03T04:47:15;99437.00;;;-0.26;92.29
4167;BME280;2097;51.104;7.150;2023-03-03T04:49:41;99325.19;;;-1.00;92.36
4167;BME280;2097;51.104;7.150;2023-03-03T04:52:08;99437.84;;;-0.27;92.63
4167;BME280;2097;51.104;7.150;2023-03-03T04:54:35;99435.28;;;-0.29;92.85
4167;BME280;2097;51.104;7.150;2023-03-03T04:57:02;99427.69;;;-0.30;92.71
4167;BME280;2097;51.104;7.150;2023-03-03T04:59:29;99425.97;;;-0.33;93.12
4167;BME280;2097;51.104;7.150;2023-03-03T05:01:57;99441.25;;;-0.33;93.49
4167;BME280;2097;51.104;7.150;2023-03-03T05:04:24;99438.72;;;-0.33;92.76
4167;BME280;2097;51.104;7.150;2023-03-03T05:06:51;99440.41;;;-0.32;92.83
4167;BME280;2097;51.104;7.150;2023-03-03T05:09:18;99438.69;;;-0.30;92.80
4167;BME280;2097;51.104;7.150;2023-03-03T05:11:45;99319.28;;;-1.05;93.33
4167;BME280;2097;51.104;7.150;2023-03-03T05:14:12;99426.03;;;-0.39;93.28
4167;BME280;2097;51.104;7.150;2023-03-03T05:16:39;99437.09;;;-0.43;93.74
4167;BME280;2097;51.104;7.150;2023-03-03T05:19:07;99433.66;;;-0.43;93.71
4167;BME280;2097;51.104;7.150;2023-03-03T05:21:34;99443.88;;;-0.45;93.59
4167;BME280;2097;51.104;7.150;2023-03-03T05:24:01;99443.88;;;-0.42;94.38
4167;BME280;2097;51.104;7.150;2023-03-03T05:26:27;99447.28;;;-0.40;93.57
4167;BME280;2097;51.104;7.150;2023-03-03T05:28:54;99455.75;;;-0.41;93.82
4167;BME280;2097;51.104;7.150;2023-03-03T05:31:21;99454.91;;;-0.41;94.17
4167;BME280;2097;51.104;7.150;2023-03-03T05:33:48;99449.81;;;-0.43;93.93
4167;BME280;2097;51.104;7.150;2023-03-03T05:36:16;99455.75;;;-0.41;93.72
4167;BME280;2097;51.104;7.150;2023-03-03T05:38:43;99456.59;;;-0.40;93.83
4167;BME280;2097;51.104;7.150;2023-03-03T05:41:10;99414.22;;;-0.59;94.10
4167;BME280;2097;51.104;7.150;2023-03-03T05:43:37;99380.28;;;-0.70;93.54
4167;BME280;2097;51.104;7.150;2023-03-03T05:46:04;99454.88;;;-0.29;94.35
4167;BME280;2097;51.104;7.150;2023-03-03T05:48:31;99259.16;;;-1.35;93.96
4167;BME280;2097;51.104;7.150;2023-03-03T05:50:58;98651.66;;;-5.08;93.81
4167;BME280;2097;51.104;7.150;2023-03-03T05:53:27;99063.78;;;-2.85;93.64
4167;BME280;2097;51.104;7.150;2023-03-03T05:55:55;99453.13;;;-0.21;94.67
4167;BME280;2097;51.104;7.150;2023-03-03T05:58:22;99327.75;;;-1.03;94.17
4167;BME280;2097;51.104;7.150;2023-03-03T06:00:53;99456.47;;;-0.16;93.76
4167;BME280;2097;51.104;7.150;2023-03-03T06:03:20;99366.69;;;-0.72;94.70
4167;BME280;2097;51.104;7.150;2023-03-03T06:05:55;99454.78;;;-0.14;94.72
4167;BME280;2097;51.104;7.150;2023-03-03T06:08:35;99368.34;;;-0.64;94.12
4167;BME280;2097;51.104;7.150;2023-03-03T06:11:01;99459.03;;;-0.12;94.09
4167;BME280;2097;51.104;7.150;2023-03-03T06:13:29;98639.00;;;-5.07;94.20
4167;BME280;2097;51.104;7.150;2023-03-03T06:15:56;99425.97;;;-0.28;95.11
4167;BME280;2097;51.104;7.150;2023-03-03T06:18:25;99130.56;;;-2.30;94.31
4167;BME280;2097;51.104;7.150;2023-03-03T06:20:52;99178.78;;;-1.93;94.78
4167;BME280;2097;51.104;7.150;2023-03-03T06:23:19;99465.88;;;-0.23;94.75
4167;BME280;2097;51.104;7.150;2023-03-03T06:25:47;99487.06;;;-0.16;94.94
4167;BME280;2097;51.104;7.150;2023-03-03T06:28:14;99211.78;;;-1.81;94.82
4167;BME280;2097;51.104;7.150;2023-03-03T06:30:41;99419.31;;;-0.56;95.13
4167;BME280;2097;51.104;7.150;2023-03-03T06:33:08;99493.06;;;-0.19;94.91
4167;BME280;2097;51.104;7.150;2023-03-03T06:35:35;99406.63;;;-0.74;95.19
4167;BME280;2097;51.104;7.150;2023-03-03T06:38:02;99493.03;;;-0.16;95.06
4167;BME280;2097;51.104;7.150;2023-03-03T06:40:29;99435.41;;;-0.54;94.96
4167;BME280;2097;51.104;7.150;2023-03-03T06:42:57;99499.84;;;-0.15;95.27
4167;BME280;2097;51.104;7.150;2023-03-03T06:45:27;99264.31;;;-1.53;94.79
4167;BME280;2097;51.104;7.150;2023-03-03T06:47:53;99520.22;;;-0.12;95.45
4167;BME280;2097;51.104;7.150;2023-03-03T06:50:21;99511.72;;;-0.11;95.56
4167;BME280;2097;51.104;7.150;2023-03-03T06:52:47;99518.53;;;-0.10;94.87
4167;BME280;2097;51.104;7.150;2023-03-03T06:55:20;99447.28;;;-0.49;94.84
4167;BME280;2097;51.104;7.150;2023-03-03T06:57:48;99517.66;;;-0.09;95.49
4167;BME280;2097;51.104;7.150;2023-03-03T07:00:19;99436.28;;;-0.57;95.62
4167;BME280;2097;51.104;7.150;2023-03-03T07:02:55;99395.63;;;-0.84;95.44
4167;BME280;2097;51.104;7.150;2023-03-03T07:05:25;99503.28;;;-0.25;94.83
4167;BME280;2097;51.104;7.150;2023-03-03T07:07:53;99524.44;;;-0.06;94.85
4167;BME280;2097;51.104;7.150;2023-03-03T07:10:23;99388.81;;;-0.82;94.46
4167;BME280;2097;51.104;7.150;2023-03-03T07:12:50;99537.13;;;0.07;95.24
4167;BME280;2097;51.104;7.150;2023-03-03T07:15:20;99533.72;;;0.11;95.36
4167;BME280;2097;51.104;7.150;2023-03-03T07:17:48;99538.81;;;0.14;94.85
4167;BME280;2097;51.104;7.150;2023-03-03T07:20:19;99537.94;;;0.18;94.87
4167;BME280;2097;51.104;7.150;2023-03-03T07:22:47;99547.28;;;0.22;95.36
4167;BME280;2097;51.104;7.150;2023-03-03T07:25:29;99550.69;;;0.21;94.73
4167;BME280;2097;51.104;7.150;2023-03-03T07:27:59;99441.31;;;-0.40;95.33
4167;BME280;2097;51.104;7.150;2023-03-03T07:30:34;99554.06;;;0.27;94.86
4167;BME280;2097;51.104;7.150;2023-03-03T07:33:01;99548.94;;;0.35;95.24
4167;BME280;2097;51.104;7.150;2023-03-03T07:35:36;99546.31;;;0.41;94.88
4167;BME280;2097;51.104;7.150;2023-03-03T07:38:15;99547.97;;;0.51;95.44
4167;BME280;2097;51.104;7.150;2023-03-03T07:40:47;99545.38;;;0.57;94.70
4167;BME280;2097;51.104;7.150;2023-03-03T07:43:29;99518.22;;;0.44;95.28
4167;BME280;2097;51.104;7.150;2023-03-03T07:46:01;99545.22;;;0.78;95.18
4167;BME280;2097;51.104;7.150;2023-03-03T07:48:32;99555.44;;;0.82;94.18
4167;BME280;2097;51.104;7.150;2023-03-03T07:51:04;99552.84;;;0.87;94.32
4167;BME280;2097;51.104;7.150;2023-03-03T07:53:33;99430.00;;;0.11;94.37
4167;BME280;2097;51.104;7.150;2023-03-03T07:56:10;99484.19;;;0.45;94.24
4167;BME280;2097;51.104;7.150;2023-03-03T07:58:41;99554.56;;;0.85;94.39
4167;BME280;2097;51.104;7.150;2023-03-03T08:01:31;99561.38;;;0.84;94.86
4167;BME280;2097;51.104;7.150;2023-03-03T08:04:11;99565.63;;;0.84;94.95
4167;BME280;2097;51.104;7.150;2023-03-03T08:06:47;99440.19;;;0.10;94.43
4167;BME280;2097;51.104;7.150;2023-03-03T08:09:29;99445.34;;;0.01;94.84
4167;BME280;2097;51.104;7.150;2023-03-03T08:11:58;99575.88;;;0.78;95.13
4167;BME280;2097;51.104;7.150;2023-03-03T08:14:29;99588.63;;;0.84;95.19
4167;BME280;2097;51.104;7.150;2023-03-03T08:16:59;99592.03;;;0.84;94.84
4167;BME280;2097;51.104;7.150;2023-03-03T08:19:26;99511.53;;;0.31;95.10
4167;BME280;2097;51.104;7.150;2023-03-03T08:21:58;99587.78;;;0.82;94.85
4167;BME280;2097;51.104;7.150;2023-03-03T08:24:26;99592.03;;;0.83;94.96
4167;BME280;2097;51.104;7.150;2023-03-03T08:26:53;99597.13;;;0.86;95.19
4167;BME280;2097;51.104;7.150;2023-03-03T08:29:20;99588.59;;;0.88;94.95
4167;BME280;2097;51.104;7.150;2023-03-03T08:31:46;99601.25;;;1.08;95.02
4167;BME280;2097;51.104;7.150;2023-03-03T08:34:15;99598.56;;;1.21;94.04
4167;BME280;2097;51.104;7.150;2023-03-03T08:36:41;99601.84;;;1.35;93.42
4167;BME280;2097;51.104;7.150;2023-03-03T08:39:08;99605.09;;;1.55;94.17
4167;BME280;2097;51.104;7.150;2023-03-03T08:41:35;99607.50;;;1.70;93.18
4167;BME280;2097;51.104;7.150;2023-03-03T08:44:03;99608.22;;;1.82;93.22
4167;BME280;2097;51.104;7.150;2023-03-03T08:46:30;99603.88;;;1.90;93.35
4167;BME280;2097;51.104;7.150;2023-03-03T08:48:57;99608.94;;;1.96;93.22
4167;BME280;2097;51.104;7.150;2023-03-03T08:51:25;99612.19;;;2.10;93.01
4167;BME280;2097;51.104;7.150;2023-03-03T08:53:52;99616.34;;;2.22;93.11
4167;BME280;2097;51.104;7.150;2023-03-03T08:56:19;99616.22;;;2.29;92.87
4167;BME280;2097;51.104;7.150;2023-03-03T08:58:46;99615.25;;;2.39;92.29
4167;BME280;2097;51.104;7.150;2023-03-03T09:01:13;99615.34;;;2.34;92.60
4167;BME280;2097;51.104;7.150;2023-03-03T09:03:41;99603.53;;;2.20;92.33
4167;BME280;2097;51.104;7.150;2023-03-03T09:06:08;99601.28;;;1.95;93.18
4167;BME280;2097;51.104;7.150;2023-03-03T09:08:36;99623.41;;;1.97;93.34
4167;BME280;2097;51.104;7.150;2023-03-03T09:11:09;99620.00;;;1.98;93.78
4167;BME280;2097;51.104;7.150;2023-03-03T09:13:37;99622.47;;;2.07;93.14
4167;BME280;2097;51.104;7.150;2023-03-03T09:16:12;99620.75;;;2.08;93.26
4167;BME280;2097;51.104;7.150;2023-03-03T09:18:40;99625.69;;;2.24;92.81
4167;BME280;2097;51.104;7.150;2023-03-03T09:21:18;99618.09;;;2.17;92.47
4167;BME280;2097;51.104;7.150;2023-03-03T09:23:53;99636.69;;;2.32;92.50
4167;BME280;2097;51.104;7.150;2023-03-03T09:26:26;99635.78;;;2.36;92.56
4167;BME280;2097;51.104;7.150;2023-03-03T09:28:59;99642.59;;;2.37;92.27
4167;BME280;2097;51.104;7.150;2023-03-03T09:31:37;99639.16;;;2.41;92.02
4167;BME280;2097;51.104;7.150;2023-03-03T09:34:17;99643.25;;;2.52;92.05
4167;BME280;2097;51.104;7.150;2023-03-03T09:36:45;99644.00;;;2.62;91.60
4167;BME280;2097;51.104;7.150;2023-03-03T09:39:16;99667.00;;;2.65;91.66
4167;BME280;2097;51.104;7.150;2023-03-03T09:45:17;99664.47;;;2.63;91.76
4167;BME280;2097;51.104;7.150;2023-03-03T09:48:06;99669.56;;;2.65;92.03
4167;BME280;2097;51.104;7.150;2023-03-03T09:50:42;99665.25;;;2.71;91.78
4167;BME280;2097;51.104;7.150;2023-03-03T09:53:22;99649.91;;;2.68;91.91
4167;BME280;2097;51.104;7.150;2023-03-03T09:55:58;99662.56;;;2.79;91.61
4167;BME280;2097;51.104;7.150;2023-03-03T09:58:47;99670.97;;;2.90;91.72
4167;BME280;2097;51.104;7.150;2023-03-03T10:01:32;99668.44;;;2.85;91.17
4167;BME280;2097;51.104;7.150;2023-03-03T10:07:26;99675.47;;;2.73;91.56
4167;BME280;2097;51.104;7.150;2023-03-03T10:10:24;99667.03;;;2.63;91.45
4167;BME280;2097;51.104;7.150;2023-03-03T10:13:04;99672.28;;;2.54;91.59
4167;BME280;2097;51.104;7.150;2023-03-03T10:15:44;99669.78;;;2.50;91.63
4167;BME280;2097;51.104;7.150;2023-03-03T10:18:27;99669.81;;;2.47;92.02
4167;BME280;2097;51.104;7.150;2023-03-03T10:21:06;99543.50;;;1.77;91.44
4167;BME280;2097;51.104;7.150;2023-03-03T10:23:48;99677.41;;;2.54;91.21
4167;BME280;2097;51.104;7.150;2023-03-03T10:26:28;99566.41;;;1.83;91.13
4167;BME280;2097;51.104;7.150;2023-03-03T10:29:23;99672.34;;;2.48;91.19
4167;BME280;2097;51.104;7.150;2023-03-03T10:32:17;99675.63;;;2.58;91.49
4167;BME280;2097;51.104;7.150;2023-03-03T10:34:58;99670.44;;;2.65;90.91
4167;BME280;2097;51.104;7.150;2023-03-03T10:37:32;99667.66;;;2.80;90.49
4167;BME280;2097;51.104;7.150;2023-03-03T10:40:12;99670.94;;;2.91;90.70
4167;BME280;2097;51.104;7.150;2023-03-03T10:43:11;99667.19;;;3.13;90.66
4167;BME280;2097;51.104;7.150;2023-03-03T10:45:58;99666.94;;;3.30;89.82
4167;BME280;2097;51.104;7.150;2023-03-03T10:48:45;99676.09;;;3.48;89.68
4167;BME280;2097;51.104;7.150;2023-03-03T10:51:21;99676.66;;;3.65;89.06
4167;BME280;2097;51.104;7.150;2023-03-03T10:54:01;99684.97;;;3.79;89.15
4167;BME280;2097;51.104;7.150;2023-03-03T10:56:39;99683.88;;;3.94;89.32
4167;BME280;2097;51.104;7.150;2023-03-03T10:59:22;99686.19;;;4.09;88.98
4167;BME280;2097;51.104;7.150;2023-03-03T11:01:57;99361.97;;;2.25;88.13
4167;BME280;2097;51.104;7.150;2023-03-03T11:07:24;99691.13;;;4.19;88.58
4167;BME280;2097;51.104;7.150;2023-03-03T11:10:04;99695.47;;;4.16;88.28
4167;BME280;2097;51.104;7.150;2023-03-03T11:12:43;99696.25;;;4.19;88.38
4167;BME280;2097;51.104;7.150;2023-03-03T11:15:21;99698.72;;;4.25;88.24
4167;BME280;2097;51.104;7.150;2023-03-03T11:18:02;99690.06;;;4.31;88.09
4167;BME280;2097;51.104;7.150;2023-03-03T11:20:39;99698.53;;;4.36;88.16
4167;BME280;2097;51.104;7.150;2023-03-03T11:26:11;99685.56;;;4.42;87.48
4167;BME280;2097;51.104;7.150;2023-03-03T11:28:52;99682.84;;;4.50;88.08
4167;BME280;2097;51.104;7.150;2023-03-03T11:31:27;99686.28;;;4.49;87.29
4167;BME280;2097;51.104;7.150;2023-03-03T11:34:09;99677.13;;;4.35;87.10
4167;BME280;2097;51.104;7.150;2023-03-03T11:36:42;99674.03;;;4.18;87.38
4167;BME280;2097;51.104;7.150;2023-03-03T11:39:12;99674.84;;;4.20;87.68
4167;BME280;2097;51.104;7.150;2023-03-03T11:41:41;99668.41;;;4.42;87.91
4167;BME280;2097;51.104;7.150;2023-03-03T11:44:18;99663.81;;;4.59;86.88
4167;BME280;2097;51.104;7.150;2023-03-03T11:46:50;99669.28;;;4.83;86.34
4167;BME280;2097;51.104;7.150;2023-03-03T11:49:24;99665.69;;;4.92;85.92
4167;BME280;2097;51.104;7.150;2023-03-03T11:52:02;99668.19;;;4.95;85.63
4167;BME280;2097;51.104;7.150;2023-03-03T11:54:44;99490.22;;;4.07;85.47
4167;BME280;2097;51.104;7.150;2023-03-03T11:57:18;99654.19;;;5.08;85.64
4167;BME280;2097;51.104;7.150;2023-03-03T12:00:03;99654.19;;;5.08;85.84
4167;BME280;2097;51.104;7.150;2023-03-03T12:03:01;99654.22;;;5.06;85.17
4167;BME280;2097;51.104;7.150;2023-03-03T12:05:45;99654.28;;;5.03;85.02
4167;BME280;2097;51.104;7.150;2023-03-03T12:08:26;99656.34;;;4.88;85.06
4167;BME280;2097;51.104;7.150;2023-03-03T12:11:01;99648.56;;;4.91;85.23
4167;BME280;2097;51.104;7.150;2023-03-03T12:13:41;99647.31;;;5.08;85.33
4167;BME280;2097;51.104;7.150;2023-03-03T12:16:21;99636.44;;;5.32;84.62
4167;BME280;2097;51.104;7.150;2023-03-03T12:19:13;99640.56;;;5.41;84.90
4167;BME280;2097;51.104;7.150;2023-03-03T12:21:55;99639.50;;;5.48;84.62
4167;BME280;2097;51.104;7.150;2023-03-03T12:24:33;99636.78;;;5.54;84.60
4167;BME280;2097;51.104;7.150;2023-03-03T12:27:12;99636.50;;;5.65;84.46
4167;BME280;2097;51.104;7.150;2023-03-03T12:29:41;99627.91;;;5.66;83.71
4167;BME280;2097;51.104;7.150;2023-03-03T12:32:21;99618.91;;;5.48;83.80
4167;BME280;2097;51.104;7.150;2023-03-03T12:34:57;99620.84;;;5.40;83.44
4167;BME280;2097;51.104;7.150;2023-03-03T12:37:43;99624.22;;;5.42;83.97
4167;BME280;2097;51.104;7.150;2023-03-03T12:40:16;99628.44;;;5.46;83.27
4167;BME280;2097;51.104;7.150;2023-03-03T12:42:58;99623.41;;;5.40;83.39
4167;BME280;2097;51.104;7.150;2023-03-03T12:45:44;99624.31;;;5.39;83.30
4167;BME280;2097;51.104;7.150;2023-03-03T12:48:16;99623.69;;;5.28;83.46
4167;BME280;2097;51.104;7.150;2023-03-03T12:50:52;99624.69;;;5.22;83.07
4167;BME280;2097;51.104;7.150;2023-03-03T12:56:13;99573.31;;;4.83;82.86
4167;BME280;2097;51.104;7.150;2023-03-03T12:58:50;99624.28;;;5.04;82.72
4167;BME280;2097;51.104;7.150;2023-03-03T13:01:34;99620.03;;;5.01;83.73
4167;BME280;2097;51.104;7.150;2023-03-03T13:04:10;99620.75;;;5.08;83.52
4167;BME280;2097;51.104;7.150;2023-03-03T13:06:44;99615.25;;;5.23;83.51
4167;BME280;2097;51.104;7.150;2023-03-03T13:09:27;99620.59;;;5.49;83.19
4167;BME280;2097;51.104;7.150;2023-03-03T13:12:10;99623.56;;;5.68;81.17
4167;BME280;2097;51.104;7.150;2023-03-03T13:14:46;99626.88;;;5.73;81.68
4167;BME280;2097;51.104;7.150;2023-03-03T13:17:21;99625.72;;;5.50;80.83
4167;BME280;2097;51.104;7.150;2023-03-03T13:19:55;99566.34;;;4.88;81.52
4167;BME280;2097;51.104;7.150;2023-03-03T13:22:35;99624.63;;;5.25;82.13
4167;BME280;2097;51.104;7.150;2023-03-03T13:25:26;99626.41;;;5.57;81.80
4167;BME280;2097;51.104;7.150;2023-03-03T13:28:00;99602.31;;;5.94;81.81
4167;BME280;2097;51.104;7.150;2023-03-03T13:30:32;99615.09;;;6.29;79.63
4167;BME280;2097;51.104;7.150;2023-03-03T13:33:04;99618.22;;;6.09;79.82
4167;BME280;2097;51.104;7.150;2023-03-03T13:35:40;99620.59;;;5.83;79.84
4167;BME280;2097;51.104;7.150;2023-03-03T13:38:09;99616.38;;;5.46;80.66
4167;BME280;2097;51.104;7.150;2023-03-03T13:40:42;99622.94;;;5.24;80.72
4167;BME280;2097;51.104;7.150;2023-03-03T13:43:16;99562.34;;;4.75;82.05
4167;BME280;2097;51.104;7.150;2023-03-03T13:45:53;99618.88;;;5.14;81.98
4167;BME280;2097;51.104;7.150;2023-03-03T13:48:40;99612.66;;;5.23;81.38
4167;BME280;2097;51.104;7.150;2023-03-03T13:51:22;99612.72;;;5.20;80.35
4167;BME280;2097;51.104;7.150;2023-03-03T13:54:03;99612.78;;;5.18;80.79
4167;BME280;2097;51.104;7.150;2023-03-03T13:56:47;99608.31;;;5.26;80.79
4167;BME280;2097;51.104;7.150;2023-03-03T13:59:27;99610.44;;;5.44;79.87
4167;BME280;2097;51.104;7.150;2023-03-03T14:02:00;99604.66;;;5.68;79.58
4167;BME280;2097;51.104;7.150;2023-03-03T14:04:39;99600.63;;;5.93;79.85
4167;BME280;2097;51.104;7.150;2023-03-03T14:07:11;99604.09;;;6.22;79.12
4167;BME280;2097;51.104;7.150;2023-03-03T14:09:53;99476.00;;;5.66;78.35